Dernières infos :  

11/05/2017  Mise à jour des tableaux d'analyses décadaires : rubrique climatologie
03/05/2017 Mise en ligne de la synthèse climatologique d'Avril 2017 : 
CLIQUEZ ICI
01/05/2017  Mise à jour des tableaux d'analyses décadaires, mensuelles et annuelles : rubrique climatologie   

Si l'entête du tableau ne s'affiche pas correctement, => actualisez la page (F5 avec Internet Explorer, Chrome...).
Utilisez l'ascenseur sur la droite des lignes du tableau pour faire défiler verticalement les jours du mois.

TABLEAU DES DONNEES COMPLETES NOAA DE JUILLET 2016

DATE TEMPERATURE
sous abri
TEMPARATURE 
au sol
VENT  et  Indice de Refroidissement Eolien  PRECIPITATIONS (en mm/m2)
et Intensité
PRESSION ATMOSPHERIQUE (en hPa) HUMIDITE de l'AIR RADIATIONS SOLAIRES (en W/m2)
Mini Moy. Maxi Mini Moy. Maxi Moyen Rafale I.R.E.
Minii
Précip. jour Cumul mois Intensité Maxi Mini Moy. Maxi Mini Moy. Maxi Pic maxi du jour Total jour
01/07/2016 16.7° 23.3° 29.4° 15° 23.6° 32.2° 3.2km/h dir NE 29km/h dir SO 16.7° 0.8 0.8 12.4mm/h 1013 1015.9 1017.7 47% 69.6% 91% 1000 86 791
02/07/2016 13.7° 18.9° 21.3° 12.2° 19° 26.1° 4.8km/h dir ONO 24.1km/h dir O 13.8° 0.8 1.6 3.6mm/h 1014.7 1018 1021.4 58% 79.9% 93% 1016 35 645
03/07/2016 10.4° 17.7° 24.1° 9.4° 18.4° 28.3° 4km/h dir ESE 19.3km/h dir ONO 10.4° 0 1.6 1020.8 1021.5 1022.4 43% 70.6% 96% 1063 96 112
04/07/2016 11.8° 19.8° 26.3° 10.6° 20.5° 31.1° 4km/h dir ESE 22.5km/h dir OSO 11.8° 0 1.6 1016.5 1019.4 1021.7 54% 72.8% 94% 1185 96 762
05/07/2016 15.2° 21° 27.9° 13.9° 21.7° 32.8° 4.2km/h dir O 25.7km/h dir NO 15.2° 0 1.6 1016.2 1017.3 1018.8 51% 74.9% 94% 1160 79 642
06/07/2016 14.3° 20.4° 25.9° 12.8° 20.9° 30.6° 5.3km/h dir ONO 24.1km/h dir O 14.3° 0 1.6 1018 1019.1 1020.2 46% 71.2% 93% 1143 89 076
07/07/2016 12.5° 20.5° 28.4° 10° 20.9° 32.8° 4.2km/h dir ONO 22.5km/h dir NNE 12.5° 0 1.6 1016.1 1018.3 1019.8 40% 68.3% 94% 930 93 591
08/07/2016 15.3° 23.3° 30.9° 13.9° 23.8° 35° 3.9km/h dir S 22.5km/h dir OSO 15.3° 0 1.6 1016.5 1017.5 1019.7 43% 67.4% 91% 895 86 235
09/07/2016 16.3° 23.7° 29.8° 15° 24.3° 34.4° 5.3km/h dir NNE 25.7km/h dir NO 16.3° 0 1.6 1016 1018.8 1020.6 48% 69.4% 94% 896 92 092
10/07/2016 16.1° 25.3° 33.8° 14.4° 25.4° 37.2° 3.2km/h dir S 20.9km/h dir S 16.1° 0 1.6 1010.4 1013.1 1015.9 40% 68.5% 94% 886 88 888
11/07/2016 18.9° 21.9° 26.2° 17.2° 22.2° 31.7° 3.9km/h dir SE 17.7km/h dir ONO 18.9° 12.8 14.4 81.8mm/h 1011.7 1013 1014.5 69% 84.4% 95% 1127 51 215
12/07/2016 14.1° 17.8° 20.4° 13.3° 17.8° 22.2° 3.4km/h dir ONO 20.9km/h dir ONO 13.8° 5.4 19.8 8.8mm/h 1014 1015 1017.3 72% 88.8% 95% 432 19 952
13/07/2016 13.7° 15.6° 19.9° 13.3° 16.5° 26.1° 4.7km/h dir O 35.4km/h dir O 13.7° 0.8 20.6 5.8mm/h 1016 1017.8 1021 57% 81.2% 95% 1299 56 035
14/07/2016 10° 14.1° 18.9° 9.4° 14.5° 26.1° 4.5km/h dir NNE 32.2km/h dir N 10° 2 22.6 11.8mm/h 1020.2 1021.4 1024.5 58% 81.4% 95% 1181 52 759
15/07/2016 15.6° 21.8° 7.8° 16.4° 25.6° 8.9km/h dir NNE 37km/h dir NO 0.2 22.8 1024.3 1025.1 1026.2 46% 72.8% 96% 1014 91 817
16/07/2016 10.1° 18.3° 25° 8.3° 18.4° 27.8° 11.1km/h dir NO 38.6km/h dir NO 9.7° 0 22.8 1020.7 1023 1024.5 42% 64.2% 90% 895 92 653
17/07/2016 11.3° 20.8° 29° 9.4° 20.8° 32.8° 3.5km/h dir N 17.7km/h dir N 11.3° 0 22.8 1018.4 1020.1 1021.6 47% 68.2% 94% 902 92 265
18/07/2016 14.1° 23.4° 32.3° 12.2° 23.4° 36.1° 2.7km/h dir NNE 14.5km/h dir NNE 14.1° 0 22.8 1017.3 1018.9 1020.1 40% 71.2% 96% 893 90 469
19/07/2016 16.3° 25.1° 34.6° 14.4° 24.9° 37.8° 3.1km/h dir ESE 14.5km/h dir SSE 16.3° 0 22.8 1014.5 1016.9 1018.5 39% 66.7% 95% 893 90 106
20/07/2016 19.6° 26.2° 33.7° 16.1° 25.5° 36.7° 7.4km/h dir SSE 30.6km/h dir S 19.6° 0 22.8 1011.7 1013.9 1015.7 28% 45.1% 66% 891 77 757
21/07/2016 19.3° 24.7° 29.8° 17.2° 25.8° 35.6° 4.8km/h dir ONO 19.3km/h dir ONO 19.3° 0 22.8 1012.3 1014.3 1015.6 56% 70.9% 87% 976 76 584
22/07/2016 19° 21.1° 25.2° 17.8° 21.5° 32.2° 3.9km/h dir O 24.1km/h dir SO 19.1° 0.6 23.4 1012.5 1014.2 1016.1 67% 83.9% 92% 1005 43 191
23/07/2016 18.6° 21.6° 26° 17.8° 22.5° 30.6° 5.5km/h dir ONO 27.4km/h dir NO 18.6° 0.2 23.6 1015.6 1016.6 1018.9 64% 81.9% 95% 1060 55 573
24/07/2016 15.6° 21.3° 25.9° 13.9° 22.2° 32.8° 6.8km/h dir ONO 29km/h dir ONO 15.6° 0.2 23.8 1017.2 1018.4 1018.9 63% 81% 96% 1209 75 209
25/07/2016 16.4° 22.9° 28.9° 15° 23.7° 33.9° 6.1km/h dir NNE 27.4km/h dir NNE 16.4° 0 23.8 1017.1 1018.1 1018.7 45% 72.6% 96% 891 82 996
26/07/2016 15.6° 22.8° 29.5° 13.9° 23.6° 35° 5.8km/h dir ONO 32.2km/h dir O 15.6° 0 23.8 1016.9 1017.9 1018.7 49% 73.4% 95% 926 82 431
27/07/2016 14.9° 21.3° 27.2° 13.3° 22° 33.3° 5km/h dir ONO 20.9km/h dir NO 14.9° 0 23.8 1016.7 1017.8 1018.6 49% 70.1% 91% 1048 74 956
28/07/2016 13.4° 20.8° 27.3° 12.2° 21.6° 33.9° 3.1km/h dir ESE 16.1km/h dir NO 13.4° 0 23.8 1016 1017.3 1018.2 51% 73.2% 95% 1102 63 164
29/07/2016 15.1° 22.8° 29.9° 13.9° 23.7° 35.6° 2.4km/h dir N 14.5km/h dir OSO 15.2° 0 23.8 1012.7 1015.3 1017.1 47% 71.3% 95% 1058 78 558
30/07/2016 16.2° 22.5° 30.2° 14.4° 22.6° 36.1° 3.7km/h dir ESE 49.9km/h dir OSO 16.2° 4.4 28.2 37.8mm/h 1010.3 1012.8 1014.3 50% 78.4% 95% 1000 48 194
31/07/2016 18.8° 21.3° 24.8° 17.2° 21.5° 30° 6km/h dir O 29km/h dir 0 18.8° 1.6 29.8 10mm/h 1012 1014 1017.3 62% 80.5% 94% 921 38 611

RETOUR ACCUEIL


Date de création : 02/08/2016 : 10:07
Catégorie : ARCHIVES 2002 à 2016 - ANNEES 2010 à 2019 - ANNEE 2016 - JUILLET 2016
Page lue 597 fois


Réactions à cet article

Personne n'a encore laissé de commentaire.
Soyez donc le premier !